Terminal Aerodrome Forecast
Issued by NWS

Current Version | Previous Version | Text Only | Print | Product List | Glossary On
Versions: 1 2 3 4 5 6 7 8 9 10 11 12 13 14 15 16 17
047
FTUS43 KICT 200520
TAFCNU
TAF
KCNU 200520Z 2006/2106 15010KT P6SM BKN025
      TEMPO 2008/2012 4SM -TSRA OVC015CB
     FM201200 16010KT P6SM -RA OVC012
     FM201600 20010KT P6SM BKN025=

USA.gov is the U.S. government's official web portal to all federal, state and local government web resources and services.